Time;durP1;ratioP1;P1;durP2;ratioP2;P2;SDS_P1;SDS_P2;PMS_P1;PMS_P2;Temp;Humidity;BMP_temperature;BMP_pressure;BME280_temperature;BME280_humidity;BME280_pressure;Samples;Min_cycle;Max_cycle;Signal;HPM_P1;HPM_P2
2022/07/17 05:00:18;;;;;;;7.80;4.23;;;18.70;97.20;;;;;;1700867;29;20183;-70
2022/07/17 05:01:08;;;;;;;4.32;4.00;;;18.70;97.20;;;;;;1700673;29;20246;-70
2022/07/17 05:02:00;;;;;;;4.33;4.03;;;18.70;97.20;;;;;;1700556;29;20662;-70
2022/07/17 05:02:51;;;;;;;4.47;4.18;;;18.70;97.20;;;;;;1700740;29;20214;-70
2022/07/17 05:03:43;;;;;;;5.50;4.37;;;18.70;97.20;;;;;;1700664;29;20301;-70
2022/07/17 05:04:33;;;;;;;4.45;4.05;;;18.80;97.20;;;;;;1700607;29;20588;-70
2022/07/17 05:05:25;;;;;;;4.13;3.80;;;18.80;97.20;;;;;;1700648;29;20217;-70
2022/07/17 05:06:16;;;;;;;5.43;4.15;;;18.80;97.20;;;;;;1700615;29;20454;-71
2022/07/17 05:07:08;;;;;;;4.97;4.40;;;18.80;97.20;;;;;;1700319;29;20237;-70
2022/07/17 05:07:59;;;;;;;4.90;4.40;;;18.80;97.20;;;;;;1700570;29;20447;-70
2022/07/17 05:08:50;;;;;;;6.03;4.20;;;18.80;97.20;;;;;;1700705;29;20738;-71
2022/07/17 05:09:42;;;;;;;4.20;3.92;;;18.80;97.20;;;;;;1700687;29;20726;-70
2022/07/17 05:10:33;;;;;;;4.70;4.30;;;18.90;97.20;;;;;;1700704;29;20326;-70
2022/07/17 05:11:24;;;;;;;5.13;4.63;;;18.90;97.20;;;;;;1700639;29;20211;-70
2022/07/17 05:12:16;;;;;;;5.83;4.53;;;18.90;97.20;;;;;;1700667;29;20286;-70
2022/07/17 05:13:07;;;;;;;4.85;4.45;;;18.90;97.20;;;;;;1700673;29;20203;-70
2022/07/17 05:13:59;;;;;;;6.77;4.60;;;18.90;97.20;;;;;;1700662;29;20293;-70
2022/07/17 05:14:49;;;;;;;5.00;4.60;;;18.90;97.20;;;;;;1700651;29;20227;-71
2022/07/17 05:15:42;;;;;;;5.43;4.83;;;18.90;97.20;;;;;;1700663;29;20702;-70
2022/07/17 05:16:33;;;;;;;5.07;4.65;;;19.00;97.20;;;;;;1700310;29;20243;-71
2022/07/17 05:17:25;;;;;;;5.13;4.70;;;19.00;97.20;;;;;;1700347;29;20203;-70
2022/07/17 05:18:16;;;;;;;5.00;4.60;;;19.00;97.20;;;;;;1700406;29;20206;-70
2022/07/17 05:19:08;;;;;;;4.90;4.50;;;19.00;97.20;;;;;;1700749;29;20205;-70
2022/07/17 05:19:58;;;;;;;6.30;4.80;;;19.00;97.20;;;;;;1700475;29;20699;-70
2022/07/17 05:20:50;;;;;;;5.03;4.63;;;19.10;97.20;;;;;;1700619;29;20652;-70
2022/07/17 05:21:41;;;;;;;5.38;4.97;;;19.10;97.20;;;;;;1700523;29;20211;-70
2022/07/17 05:22:32;;;;;;;5.80;5.27;;;19.10;97.20;;;;;;1700356;29;20209;-70
2022/07/17 05:23:23;;;;;;;5.70;5.10;;;19.10;97.20;;;;;;1697870;29;20690;-70
2022/07/17 05:24:15;;;;;;;7.30;4.90;;;19.10;97.20;;;;;;1700709;29;20227;-70
2022/07/17 05:25:07;;;;;;;5.50;5.00;;;19.10;97.20;;;;;;1700577;29;20203;-70
2022/07/17 05:25:59;;;;;;;6.43;4.78;;;19.20;97.20;;;;;;1700469;29;20226;-70
2022/07/17 05:26:49;;;;;;;6.00;5.40;;;19.20;97.20;;;;;;1700337;29;20354;-70
2022/07/17 05:27:41;;;;;;;5.73;4.87;;;19.20;97.20;;;;;;1700566;29;20215;-70
2022/07/17 05:28:32;;;;;;;4.90;4.50;;;19.20;97.20;;;;;;1700598;29;20580;-70
2022/07/17 05:29:24;;;;;;;5.40;4.90;;;19.20;97.20;;;;;;1700548;29;20314;-71
2022/07/17 05:30:14;;;;;;;4.95;4.55;;;19.20;97.20;;;;;;1700650;29;20583;-71
2022/07/17 05:31:08;;;;;;;5.10;4.60;;;19.20;97.20;;;;;;1700650;29;20302;-71
2022/07/17 05:31:58;;;;;;;4.53;4.07;;;19.30;97.20;;;;;;1700643;29;20443;-70
2022/07/17 05:32:50;;;;;;;4.83;4.40;;;19.30;97.20;;;;;;1700601;29;20226;-71
2022/07/17 05:33:41;;;;;;;5.47;4.97;;;19.30;97.20;;;;;;1700576;29;20211;-71
2022/07/17 05:34:33;;;;;;;5.00;4.60;;;19.30;97.20;;;;;;1700565;29;20255;-71
2022/07/17 05:35:23;;;;;;;5.40;4.90;;;19.40;97.20;;;;;;1700291;29;20204;-71
2022/07/17 05:36:15;;;;;;;6.10;4.97;;;19.40;97.20;;;;;;1700510;29;20282;-71
2022/07/17 05:37:06;;;;;;;5.30;4.60;;;19.40;97.20;;;;;;1700196;29;20210;-70
2022/07/17 05:37:58;;;;;;;7.03;4.90;;;19.40;97.20;;;;;;1700008;29;20214;-71
2022/07/17 05:38:48;;;;;;;5.43;4.82;;;19.40;97.20;;;;;;1700636;29;20223;-70
2022/07/17 05:39:40;;;;;;;6.13;5.63;;;19.50;97.20;;;;;;1700386;29;20241;-71
2022/07/17 05:40:31;;;;;;;6.10;5.47;;;19.50;97.20;;;;;;1700611;29;20211;-70
2022/07/17 05:41:23;;;;;;;7.60;5.13;;;19.50;97.20;;;;;;1700464;29;20319;-70
2022/07/17 05:42:14;;;;;;;5.57;5.00;;;19.50;97.20;;;;;;1700637;29;20203;-70
2022/07/17 05:43:05;;;;;;;4.80;4.30;;;19.50;97.20;;;;;;1700595;29;20285;-70
2022/07/17 05:43:56;;;;;;;5.28;4.78;;;19.60;97.20;;;;;;1700611;29;20199;-70
2022/07/17 05:44:48;;;;;;;5.40;4.70;;;19.60;97.20;;;;;;1700399;29;20234;-70
2022/07/17 05:45:39;;;;;;;5.28;4.88;;;19.60;97.20;;;;;;1700545;29;20218;-70
2022/07/17 05:46:32;;;;;;;4.83;4.37;;;19.60;97.20;;;;;;1700587;29;20282;-70
2022/07/17 05:47:22;;;;;;;7.72;5.15;;;19.60;97.20;;;;;;1700568;29;20218;-70
2022/07/17 05:48:14;;;;;;;6.20;5.60;;;19.60;97.20;;;;;;1700637;29;20290;-70
2022/07/17 05:49:05;;;;;;;5.15;4.65;;;19.70;97.20;;;;;;1700540;29;20211;-70
2022/07/17 05:49:57;;;;;;;4.60;4.20;;;19.70;97.20;;;;;;1700547;29;20238;-70
2022/07/17 05:50:48;;;;;;;4.85;4.45;;;19.70;97.20;;;;;;1700475;29;20222;-70
2022/07/17 05:51:39;;;;;;;5.20;4.70;;;19.70;97.20;;;;;;1700114;29;20233;-71
2022/07/17 05:52:30;;;;;;;5.00;4.50;;;19.80;97.20;;;;;;1701126;29;20214;-70
2022/07/17 05:53:22;;;;;;;6.20;5.60;;;19.80;97.20;;;;;;1701680;29;20199;-70
2022/07/17 05:54:13;;;;;;;5.55;4.60;;;19.80;97.20;;;;;;1701869;29;20615;-71
2022/07/17 05:55:05;;;;;;;6.57;4.70;;;19.80;97.20;;;;;;1701698;29;20573;-70
2022/07/17 05:55:56;;;;;;;7.78;5.28;;;19.80;97.20;;;;;;1701655;29;20203;-70
2022/07/17 05:56:48;;;;;;;6.40;4.83;;;19.80;97.20;;;;;;1701491;29;20199;-71
2022/07/17 05:57:39;;;;;;;5.55;5.05;;;19.90;97.20;;;;;;1701687;29;20214;-71
2022/07/17 05:58:30;;;;;;;7.43;4.70;;;19.90;97.20;;;;;;1701793;29;20246;-71
2022/07/17 05:59:21;;;;;;;7.15;4.35;;;19.90;97.20;;;;;;1701612;29;20207;-70
2022/07/17 06:00:13;;;;;;;5.47;4.97;;;19.90;97.20;;;;;;1701760;29;20286;-71
2022/07/17 06:01:04;;;;;;;8.07;5.25;;;19.90;97.20;;;;;;1701501;29;20203;-70
2022/07/17 06:01:57;;;;;;;6.73;5.13;;;19.90;97.20;;;;;;1701761;29;20251;-71
2022/07/17 06:02:48;;;;;;;6.10;4.97;;;20.00;97.20;;;;;;1701708;29;20965;-70
2022/07/17 06:03:40;;;;;;;5.23;4.73;;;20.00;97.20;;;;;;1701776;29;20644;-71
2022/07/17 06:04:31;;;;;;;5.75;5.20;;;20.00;97.20;;;;;;1701660;29;20218;-71
2022/07/17 06:05:23;;;;;;;6.07;5.10;;;20.00;97.20;;;;;;1701664;29;20285;-71
2022/07/17 06:06:13;;;;;;;7.20;5.30;;;20.10;97.20;;;;;;1701225;29;20655;-71
2022/07/17 06:07:05;;;;;;;5.77;5.27;;;20.10;97.20;;;;;;1701391;29;20737;-71
2022/07/17 06:07:57;;;;;;;5.50;5.00;;;20.10;97.20;;;;;;1701548;29;20207;-70
2022/07/17 06:08:49;;;;;;;5.18;4.70;;;20.10;97.20;;;;;;1701719;29;20203;-71
2022/07/17 06:09:39;;;;;;;4.90;4.25;;;20.10;97.20;;;;;;1701642;29;20227;-71
2022/07/17 06:10:31;;;;;;;5.30;4.90;;;20.20;97.20;;;;;;1701719;29;20203;-70
2022/07/17 06:11:22;;;;;;;6.03;4.70;;;20.20;97.20;;;;;;1701555;29;20569;-71
2022/07/17 06:12:14;;;;;;;4.87;4.20;;;20.20;97.20;;;;;;1701693;29;20290;-70
2022/07/17 06:13:05;;;;;;;6.47;4.95;;;20.20;97.20;;;;;;1701620;29;20219;-70
2022/07/17 06:13:56;;;;;;;7.22;5.07;;;20.20;97.20;;;;;;1701601;29;20294;-71
2022/07/17 06:14:47;;;;;;;5.45;5.03;;;20.30;97.20;;;;;;1701484;29;20600;-70
2022/07/17 06:15:39;;;;;;;5.90;5.13;;;20.30;97.20;;;;;;1701627;29;20644;-71
2022/07/17 06:16:30;;;;;;;6.50;4.80;;;20.30;97.20;;;;;;1701534;29;20578;-71
2022/07/17 06:17:23;;;;;;;9.40;4.95;;;20.30;97.20;;;;;;1701365;29;20231;-71
2022/07/17 06:18:14;;;;;;;5.30;4.80;;;20.30;97.20;;;;;;1701590;29;20200;-70
2022/07/17 06:19:06;;;;;;;5.23;4.73;;;20.30;97.20;;;;;;1701532;29;20291;-71
2022/07/17 06:19:57;;;;;;;5.10;4.53;;;20.40;97.20;;;;;;1701285;29;20211;-71
2022/07/17 06:20:48;;;;;;;6.30;4.70;;;20.40;97.20;;;;;;1701404;29;20290;-71
2022/07/17 06:21:39;;;;;;;5.65;4.80;;;20.40;97.20;;;;;;1701560;29;20266;-70
2022/07/17 06:22:31;;;;;;;5.30;4.83;;;20.40;97.20;;;;;;1701627;29;20674;-70
2022/07/17 06:23:22;;;;;;;4.95;4.55;;;20.50;97.20;;;;;;1701451;29;20218;-71
2022/07/17 06:24:13;;;;;;;5.00;4.50;;;20.50;97.20;;;;;;1701676;29;20231;-70
2022/07/17 06:25:05;;;;;;;4.82;4.32;;;20.50;97.20;;;;;;1701439;29;20703;-70
2022/07/17 06:25:56;;;;;;;5.28;4.72;;;20.50;97.20;;;;;;1701517;29;20218;-71
2022/07/17 06:26:47;;;;;;;6.88;4.75;;;20.50;97.20;;;;;;1701312;29;20215;-71
2022/07/17 06:27:40;;;;;;;5.30;4.90;;;20.60;97.20;;;;;;1701496;29;20207;-71
2022/07/17 06:28:31;;;;;;;5.05;4.55;;;20.60;97.20;;;;;;1701464;29;20207;-70
2022/07/17 06:29:23;;;;;;;6.10;5.20;;;20.60;97.20;;;;;;1701478;29;20199;-70
2022/07/17 06:30:15;;;;;;;4.70;4.20;;;20.60;97.20;;;;;;1701304;29;20690;-71
2022/07/17 06:31:07;;;;;;;4.95;4.45;;;20.70;97.20;;;;;;1701537;29;20234;-70
2022/07/17 06:31:58;;;;;;;6.03;4.32;;;20.70;97.20;;;;;;1701331;29;20725;-71
2022/07/17 06:32:51;;;;;;;8.90;4.27;;;20.70;97.20;;;;;;1701437;29;20750;-71
2022/07/17 06:33:41;;;;;;;4.22;3.83;;;20.70;97.20;;;;;;1701500;29;20203;-71
2022/07/17 06:34:33;;;;;;;4.60;4.23;;;20.80;97.20;;;;;;1701450;29;20294;-70
2022/07/17 06:35:24;;;;;;;5.00;4.50;;;20.80;97.20;;;;;;1701443;29;20690;-70
2022/07/17 06:36:16;;;;;;;4.73;4.33;;;20.80;97.20;;;;;;1701423;29;20643;-71
2022/07/17 06:37:06;;;;;;;5.10;3.95;;;20.80;97.20;;;;;;1701252;29;20549;-71
2022/07/17 06:37:58;;;;;;;3.83;3.50;;;20.90;97.20;;;;;;1701427;29;20623;-71
2022/07/17 06:38:49;;;;;;;6.00;4.25;;;20.90;97.20;;;;;;1701605;29;20938;-71
2022/07/17 06:39:41;;;;;;;5.50;4.40;;;20.90;97.20;;;;;;1701509;29;20709;-71
2022/07/17 06:40:32;;;;;;;5.10;4.20;;;20.90;97.20;;;;;;1701471;29;20218;-71
2022/07/17 06:41:23;;;;;;;4.97;4.00;;;21.00;97.20;;;;;;1701346;29;20286;-71
2022/07/17 06:42:14;;;;;;;4.63;4.25;;;21.00;97.20;;;;;;1701485;29;20208;-71
2022/07/17 06:43:06;;;;;;;7.00;4.07;;;21.00;97.20;;;;;;1701435;29;20298;-70
2022/07/17 06:43:57;;;;;;;5.30;4.47;;;21.10;97.20;;;;;;1701454;29;20203;-71
2022/07/17 06:44:49;;;;;;;6.73;4.27;;;21.10;97.20;;;;;;1700717;29;20231;-70
2022/07/17 06:45:39;;;;;;;5.47;4.72;;;21.10;97.20;;;;;;1701415;29;20215;-70
2022/07/17 06:46:31;;;;;;;6.03;4.67;;;21.10;97.20;;;;;;1701416;29;20389;-70
2022/07/17 06:47:22;;;;;;;4.15;3.80;;;21.10;97.20;;;;;;1701457;29;20207;-70
2022/07/17 06:48:15;;;;;;;6.40;4.50;;;21.20;97.20;;;;;;1701460;29;20294;-69
2022/07/17 06:49:06;;;;;;;5.97;4.70;;;21.20;97.20;;;;;;1701699;29;20207;-70
2022/07/17 06:49:58;;;;;;;5.88;4.10;;;21.20;97.20;;;;;;1701222;29;20451;-69
2022/07/17 06:50:48;;;;;;;4.75;4.00;;;21.30;97.20;;;;;;1701489;29;20226;-70
2022/07/17 06:51:40;;;;;;;4.00;3.60;;;21.30;97.20;;;;;;1701404;29;20294;-71
2022/07/17 06:52:31;;;;;;;4.40;3.97;;;21.30;97.20;;;;;;1701518;29;20207;-69
2022/07/17 06:53:23;;;;;;;4.70;4.17;;;21.30;97.20;;;;;;1701385;29;20245;-70
2022/07/17 06:54:14;;;;;;;6.55;4.45;;;21.40;97.20;;;;;;1701245;29;20445;-71
2022/07/17 06:55:06;;;;;;;6.85;3.80;;;21.40;97.20;;;;;;1701247;29;20330;-69
2022/07/17 06:55:57;;;;;;;4.45;3.80;;;21.40;97.20;;;;;;1701181;29;20460;-70
2022/07/17 06:56:49;;;;;;;5.30;3.42;;;21.50;97.20;;;;;;1700726;29;20448;-71
2022/07/17 06:57:39;;;;;;;3.22;2.92;;;21.50;97.20;;;;;;1701213;29;20445;-69
2022/07/17 06:58:31;;;;;;;3.60;3.30;;;21.50;97.20;;;;;;1701205;29;20414;-70
2022/07/17 06:59:22;;;;;;;3.72;3.40;;;21.60;97.20;;;;;;1700951;29;20451;-68
2022/07/17 07:00:15;;;;;;;5.60;3.27;;;21.60;97.20;;;;;;1701010;29;20238;-70
2022/07/17 07:01:05;;;;;;;4.07;3.60;;;21.60;97.20;;;;;;1701326;29;20447;-70
2022/07/17 07:01:57;;;;;;;4.10;3.67;;;21.60;97.20;;;;;;1701271;29;20231;-69
2022/07/17 07:02:48;;;;;;;4.82;3.50;;;21.70;97.20;;;;;;1701151;29;20449;-71
2022/07/17 07:03:41;;;;;;;3.90;3.57;;;21.70;97.20;;;;;;1700607;29;20537;-69
2022/07/17 07:04:32;;;;;;;3.75;3.35;;;21.70;97.20;;;;;;1700729;29;20490;-70
2022/07/17 07:05:24;;;;;;;3.83;3.30;;;21.70;97.20;;;;;;1701094;29;20448;-70
2022/07/17 07:06:15;;;;;;;3.50;3.20;;;21.70;97.20;;;;;;1701082;29;20448;-70
2022/07/17 07:07:06;;;;;;;3.50;3.20;;;21.80;97.20;;;;;;1701016;29;20286;-72
2022/07/17 07:07:57;;;;;;;3.33;3.00;;;21.80;97.20;;;;;;1701253;29;20207;-69
2022/07/17 07:08:49;;;;;;;3.67;3.37;;;21.80;97.20;;;;;;1701311;29;20215;-71
2022/07/17 07:09:40;;;;;;;3.40;3.10;;;21.80;97.20;;;;;;1700985;29;20214;-71
2022/07/17 07:10:31;;;;;;;4.37;3.97;;;21.90;97.20;;;;;;1697692;29;20858;-71
2022/07/17 07:11:22;;;;;;;3.75;3.17;;;21.90;97.20;;;;;;1693939;29;20339;-71
2022/07/17 07:12:14;;;;;;;3.10;2.90;;;21.90;97.20;;;;;;1695825;29;20203;-71
2022/07/17 07:13:05;;;;;;;4.03;3.50;;;21.90;97.20;;;;;;1696959;29;20451;-71
2022/07/17 07:13:57;;;;;;;3.53;2.90;;;21.90;97.20;;;;;;1700895;29;20192;-72
2022/07/17 07:14:47;;;;;;;2.85;2.60;;;21.90;97.20;;;;;;1701075;29;20226;-71
2022/07/17 07:15:39;;;;;;;3.50;2.70;;;21.90;97.20;;;;;;1701006;29;20199;-71
2022/07/17 07:16:30;;;;;;;2.75;2.47;;;22.00;97.20;;;;;;1701056;29;20218;-71
2022/07/17 07:17:22;;;;;;;3.27;2.97;;;22.00;97.20;;;;;;1700916;29;20290;-69
2022/07/17 07:18:13;;;;;;;3.63;2.88;;;22.00;97.20;;;;;;1701128;29;20454;-71
2022/07/17 07:19:06;;;;;;;4.80;2.93;;;22.00;97.20;;;;;;1701238;29;20238;-71
2022/07/17 07:19:57;;;;;;;3.08;2.83;;;22.00;97.20;;;;;;1701226;29;20210;-71
2022/07/17 07:20:48;;;;;;;3.20;2.70;;;22.00;97.20;;;;;;1701245;29;20210;-71
2022/07/17 07:21:39;;;;;;;2.80;2.60;;;22.10;97.20;;;;;;1701055;29;20474;-71
2022/07/17 07:22:31;;;;;;;3.33;3.03;;;22.10;97.20;;;;;;1701158;29;20234;-71
2022/07/17 07:23:22;;;;;;;3.58;2.90;;;22.10;97.20;;;;;;1701126;29;20214;-71
2022/07/17 07:24:14;;;;;;;2.90;2.70;;;22.10;97.20;;;;;;1701250;29;20282;-71
2022/07/17 07:25:06;;;;;;;3.75;3.00;;;22.20;97.20;;;;;;1701175;29;20718;-71
2022/07/17 07:25:57;;;;;;;4.25;3.60;;;22.20;97.20;;;;;;1701113;29;20685;-71
2022/07/17 07:26:48;;;;;;;3.20;2.90;;;22.20;97.20;;;;;;1701114;29;20569;-72
2022/07/17 07:27:40;;;;;;;2.73;2.53;;;22.20;97.20;;;;;;1700894;29;20792;-72
2022/07/17 07:28:31;;;;;;;3.95;3.45;;;22.30;97.20;;;;;;1701074;29;20207;-71
2022/07/17 07:29:23;;;;;;;3.30;2.97;;;22.30;97.20;;;;;;1701122;29;20230;-71
2022/07/17 07:30:14;;;;;;;3.60;3.30;;;22.30;97.20;;;;;;1701165;29;20212;-71
2022/07/17 07:31:05;;;;;;;3.30;3.00;;;22.30;97.20;;;;;;1701062;29;20294;-72
2022/07/17 07:31:56;;;;;;;2.70;2.50;;;22.40;97.20;;;;;;1701043;29;20808;-70
2022/07/17 07:32:48;;;;;;;4.40;2.93;;;22.40;97.20;;;;;;1699354;29;20333;-70
2022/07/17 07:33:39;;;;;;;3.40;3.03;;;22.40;97.20;;;;;;1700977;29;20443;-70
2022/07/17 07:34:32;;;;;;;3.70;2.87;;;22.50;97.20;;;;;;1701006;29;20283;-71
2022/07/17 07:35:23;;;;;;;4.93;3.25;;;22.50;97.20;;;;;;1701000;29;20462;-71
2022/07/17 07:36:15;;;;;;;3.95;3.55;;;22.50;97.20;;;;;;1700972;29;20199;-70
2022/07/17 07:37:06;;;;;;;3.60;3.03;;;22.50;97.20;;;;;;1700785;29;20203;-71
2022/07/17 07:37:58;;;;;;;3.40;3.10;;;22.50;97.20;;;;;;1700647;29;20306;-71
2022/07/17 07:38:48;;;;;;;3.00;2.80;;;22.60;97.20;;;;;;1700645;29;20203;-72
2022/07/17 07:39:40;;;;;;;4.33;3.10;;;22.60;97.20;;;;;;1700409;29;20298;-71
2022/07/17 07:40:31;;;;;;;3.03;2.80;;;22.60;97.20;;;;;;1700170;29;20215;-71
2022/07/17 07:41:23;;;;;;;4.03;2.70;;;22.60;97.20;;;;;;1694525;29;20279;-70
2022/07/17 07:42:14;;;;;;;2.88;2.40;;;22.60;97.20;;;;;;1699772;29;20487;-69
2022/07/17 07:43:05;;;;;;;2.80;2.60;;;22.70;97.20;;;;;;1699296;29;20199;-71
2022/07/17 07:43:56;;;;;;;2.80;2.60;;;22.70;97.20;;;;;;1699700;29;20233;-71
2022/07/17 07:44:48;;;;;;;3.10;2.50;;;22.70;97.20;;;;;;1698376;29;20310;-71
2022/07/17 07:45:39;;;;;;;2.40;2.20;;;22.80;97.20;;;;;;1697637;29;20451;-71
2022/07/17 07:46:31;;;;;;;3.33;2.80;;;22.80;97.20;;;;;;1700934;29;20290;-71
2022/07/17 07:47:22;;;;;;;3.28;2.97;;;22.80;97.20;;;;;;1694756;29;20680;-72
2022/07/17 07:48:14;;;;;;;2.90;2.53;;;22.90;97.20;;;;;;1694525;29;20580;-71
2022/07/17 07:49:04;;;;;;;2.97;2.67;;;22.90;97.20;;;;;;1694585;29;20208;-75
2022/07/17 07:49:57;;;;;;;3.13;2.83;;;22.90;97.20;;;;;;1697012;29;20294;-71
2022/07/17 07:50:48;;;;;;;2.90;2.60;;;23.00;97.20;;;;;;1701031;29;20207;-72
2022/07/17 07:51:40;;;;;;;2.90;2.70;;;23.00;97.20;;;;;;1700541;29;20247;-71
2022/07/17 07:52:31;;;;;;;3.03;2.40;;;23.00;97.20;;;;;;1700788;29;20214;-70
2022/07/17 07:53:23;;;;;;;2.53;2.33;;;23.00;97.20;;;;;;1700538;29;20714;-70
2022/07/17 07:54:13;;;;;;;6.03;2.58;;;23.00;97.20;;;;;;1700748;29;20204;-70
2022/07/17 07:55:06;;;;;;;3.30;2.70;;;23.00;97.20;;;;;;1694341;29;20299;-70
2022/07/17 07:55:57;;;;;;;2.65;2.42;;;23.10;97.20;;;;;;1694465;29;20208;-70
2022/07/17 07:56:49;;;;;;;2.40;2.20;;;23.10;97.20;;;;;;1694170;29;20295;-72
2022/07/17 07:57:39;;;;;;;3.42;2.33;;;23.10;97.20;;;;;;1694489;29;20230;-71
2022/07/17 07:58:31;;;;;;;3.30;2.40;;;23.10;97.20;;;;;;1694377;29;20200;-71
2022/07/17 07:59:22;;;;;;;3.10;2.80;;;23.20;97.20;;;;;;1694401;29;20204;-71
2022/07/17 08:00:14;;;;;;;2.80;2.60;;;23.20;97.20;;;;;;1694471;29;20282;-70
2022/07/17 08:01:05;;;;;;;3.75;2.80;;;23.20;97.20;;;;;;1699057;29;20212;-70
2022/07/17 08:01:57;;;;;;;4.00;3.17;;;23.20;97.20;;;;;;1700778;29;20223;-71
2022/07/17 08:02:48;;;;;;;4.00;2.95;;;23.30;97.20;;;;;;1699909;29;20663;-69
2022/07/17 08:03:40;;;;;;;3.13;2.87;;;23.30;97.20;;;;;;1700184;29;20666;-72
2022/07/17 08:04:31;;;;;;;3.10;2.90;;;23.30;97.20;;;;;;1700575;29;20207;-71
2022/07/17 08:05:24;;;;;;;2.88;2.67;;;23.30;97.20;;;;;;1694431;29;20208;-71
2022/07/17 08:06:15;;;;;;;3.95;2.88;;;23.30;97.20;;;;;;1693938;29;20218;-71
2022/07/17 08:07:06;;;;;;;5.60;3.37;;;23.40;97.20;;;;;;1693702;29;20215;-71
2022/07/17 08:07:58;;;;;;;2.90;2.70;;;23.40;97.20;;;;;;1694036;29;20515;-71
2022/07/17 08:08:50;;;;;;;3.75;2.63;;;23.40;97.20;;;;;;1700451;29;20195;-71
2022/07/17 08:09:40;;;;;;;3.50;2.80;;;23.40;97.20;;;;;;1694849;29;20668;-71
2022/07/17 08:10:32;;;;;;;3.60;2.60;;;23.30;97.20;;;;;;1699452;29;20671;-71
2022/07/17 08:11:24;;;;;;;3.00;2.50;;;23.30;97.20;;;;;;1700464;29;20222;-71
2022/07/17 08:12:16;;;;;;;3.58;3.10;;;23.30;97.20;;;;;;1700490;29;20237;-71
2022/07/17 08:13:07;;;;;;;2.95;2.75;;;23.40;97.20;;;;;;1700583;29;20203;-70
2022/07/17 08:13:59;;;;;;;3.25;3.00;;;23.30;97.20;;;;;;1695603;29;20227;-70
2022/07/17 08:14:50;;;;;;;3.20;2.90;;;23.40;97.20;;;;;;1699186;29;20215;-71
2022/07/17 08:15:42;;;;;;;4.38;3.08;;;23.30;97.20;;;;;;1697282;29;20207;-71
2022/07/17 08:16:33;;;;;;;4.05;3.28;;;23.30;97.20;;;;;;1698550;29;20207;-71
2022/07/17 08:17:25;;;;;;;2.83;2.63;;;23.30;97.20;;;;;;1700533;29;20285;-71
2022/07/17 08:18:16;;;;;;;2.90;2.70;;;23.40;97.20;;;;;;1700446;29;20222;-71
2022/07/17 08:19:07;;;;;;;3.92;3.05;;;23.40;97.20;;;;;;1700548;29;20203;-70
2022/07/17 08:19:59;;;;;;;3.30;2.88;;;23.40;97.20;;;;;;1700451;29;20227;-70
2022/07/17 08:20:52;;;;;;;3.85;3.50;;;23.50;97.20;;;;;;1700589;29;20211;-71
2022/07/17 08:21:43;;;;;;;3.00;2.80;;;23.50;97.20;;;;;;1700592;29;20211;-71
2022/07/17 08:22:34;;;;;;;4.10;3.00;;;23.50;97.20;;;;;;1700506;29;20601;-71
2022/07/17 08:23:27;;;;;;;2.80;2.60;;;23.50;97.20;;;;;;1700580;29;20199;-71
2022/07/17 08:24:17;;;;;;;5.38;3.17;;;23.50;97.20;;;;;;1697848;29;20195;-70
2022/07/17 08:25:10;;;;;;;5.20;2.93;;;23.50;97.20;;;;;;1700439;29;20201;-71
2022/07/17 08:26:03;;;;;;;5.20;3.40;;;23.60;97.20;;;;;;1700271;29;20203;-71
2022/07/17 08:26:57;;;;;;;3.63;3.33;;;23.60;97.20;;;;;;1700252;29;20721;-70
2022/07/17 08:27:48;;;;;;;3.50;2.88;;;23.70;97.20;;;;;;1697455;29;20204;-71
2022/07/17 08:28:39;;;;;;;6.10;3.50;;;23.70;97.20;;;;;;1700600;29;20871;-72
2022/07/17 08:29:30;;;;;;;3.83;3.45;;;23.70;97.20;;;;;;1700261;29;20199;-71
2022/07/17 08:30:22;;;;;;;3.17;2.97;;;23.80;97.20;;;;;;1700476;29;20294;-69
2022/07/17 08:31:13;;;;;;;4.00;3.60;;;23.80;97.20;;;;;;1700377;29;20963;-70
2022/07/17 08:32:05;;;;;;;3.20;2.90;;;23.80;97.20;;;;;;1700487;29;20908;-71
2022/07/17 08:32:56;;;;;;;8.18;3.22;;;23.80;97.20;;;;;;1700575;29;20966;-69
2022/07/17 08:33:48;;;;;;;3.13;2.93;;;23.90;97.20;;;;;;1698992;29;20719;-70
2022/07/17 08:34:39;;;;;;;2.78;2.58;;;23.90;97.20;;;;;;1699625;29;20219;-70
2022/07/17 08:35:30;;;;;;;3.00;2.80;;;23.90;97.20;;;;;;1700536;29;20214;-70
2022/07/17 08:36:23;;;;;;;5.22;3.00;;;24.00;97.20;;;;;;1700363;29;20596;-70
2022/07/17 08:37:15;;;;;;;3.65;3.08;;;24.00;97.20;;;;;;1700211;29;20675;-70
2022/07/17 08:38:06;;;;;;;3.40;3.00;;;24.00;97.20;;;;;;1700491;29;20345;-70
2022/07/17 08:38:59;;;;;;;3.70;2.95;;;24.10;97.20;;;;;;1700810;29;20204;-69
2022/07/17 08:39:51;;;;;;;3.90;3.20;;;24.10;97.20;;;;;;1700491;29;20195;-70
2022/07/17 08:40:43;;;;;;;4.00;3.67;;;24.10;97.20;;;;;;1700581;29;20203;-70
2022/07/17 08:41:38;;;;;;;3.45;3.15;;;24.10;97.20;;;;;;1700256;29;20290;-69
2022/07/17 08:42:31;;;;;;;3.70;3.40;;;24.10;97.20;;;;;;1700164;29;20315;-68
2022/07/17 08:43:23;;;;;;;3.22;3.00;;;24.10;97.20;;;;;;1700004;29;20246;-69
2022/07/17 08:44:15;;;;;;;3.40;3.08;;;24.10;97.20;;;;;;1698358;29;20298;-69
2022/07/17 08:45:09;;;;;;;3.25;2.95;;;24.10;97.20;;;;;;1700362;29;20215;-70
2022/07/17 08:46:04;;;;;;;3.20;3.00;;;24.10;97.20;;;;;;1700258;29;20675;-69
2022/07/17 08:46:56;;;;;;;4.00;3.70;;;24.10;97.20;;;;;;1700196;29;20211;-71
2022/07/17 08:47:55;;;;;;;3.25;2.95;;;24.10;97.20;;;;;;1700511;29;20730;-72
2022/07/17 08:48:47;;;;;;;3.97;3.20;;;24.20;97.20;;;;;;1700518;29;20227;-72
2022/07/17 08:49:44;;;;;;;3.50;2.60;;;24.20;97.20;;;;;;1700518;29;20257;-70
2022/07/17 08:50:35;;;;;;;3.30;3.00;;;24.20;97.20;;;;;;1700499;29;20265;-70
2022/07/17 08:51:32;;;;;;;3.53;3.23;;;24.30;97.20;;;;;;1698671;29;20262;-71
2022/07/17 08:52:24;;;;;;;3.88;3.47;;;24.30;97.20;;;;;;1695970;29;20939;-72
2022/07/17 08:53:16;;;;;;;3.30;3.00;;;24.30;97.20;;;;;;1697305;29;20199;-71
2022/07/17 08:54:10;;;;;;;3.47;3.17;;;24.30;97.20;;;;;;1694226;29;20223;-73
2022/07/17 08:55:02;;;;;;;4.65;2.80;;;24.40;97.20;;;;;;1693479;29;20583;-69
2022/07/17 08:55:57;;;;;;;3.33;3.03;;;24.40;97.20;;;;;;1693763;29;20230;-70
2022/07/17 08:56:48;;;;;;;5.43;3.28;;;24.40;97.20;;;;;;1693466;29;20561;-71
2022/07/17 08:57:41;;;;;;;3.20;2.90;;;24.50;97.20;;;;;;1693784;29;20208;-69
2022/07/17 08:58:33;;;;;;;4.28;3.45;;;24.50;97.20;;;;;;1693618;29;20913;-69
2022/07/17 08:59:26;;;;;;;3.50;3.20;;;24.50;97.20;;;;;;1694148;29;20211;-69
2022/07/17 09:00:20;;;;;;;3.00;2.80;;;24.50;97.20;;;;;;1694265;29;20204;-68
2022/07/17 09:01:12;;;;;;;4.70;3.10;;;24.60;97.20;;;;;;1694159;29;20200;-70
2022/07/17 09:02:04;;;;;;;5.22;2.95;;;24.60;97.20;;;;;;1693742;29;20514;-71
2022/07/17 09:02:58;;;;;;;3.10;2.75;;;24.60;97.20;;;;;;1693941;29;20237;-72
2022/07/17 09:03:57;;;;;;;3.03;2.72;;;24.70;97.20;;;;;;1695239;29;20209;-72
2022/07/17 09:04:54;;;;;;;3.40;3.10;;;24.70;97.20;;;;;;1699470;29;20309;-71
2022/07/17 09:05:45;;;;;;;3.35;2.95;;;24.70;97.20;;;;;;1700629;29;20215;-71
2022/07/17 09:06:39;;;;;;;3.50;3.20;;;24.80;97.20;;;;;;1700273;29;20210;-70
2022/07/17 09:07:30;;;;;;;3.28;2.95;;;24.80;97.20;;;;;;1700589;29;20211;-70
2022/07/17 09:08:24;;;;;;;3.78;3.47;;;24.80;97.20;;;;;;1700461;29;20207;-70
2022/07/17 09:09:15;;;;;;;3.30;3.00;;;24.80;97.20;;;;;;1696246;29;20200;-69
2022/07/17 09:10:08;;;;;;;3.25;2.83;;;24.80;97.20;;;;;;1693481;29;20200;-70
2022/07/17 09:10:59;;;;;;;3.40;3.05;;;24.90;97.20;;;;;;1693752;29;20574;-70
2022/07/17 09:11:52;;;;;;;3.30;3.00;;;24.90;97.20;;;;;;1694086;29;20619;-78
2022/07/17 09:12:43;;;;;;;3.10;2.90;;;24.90;97.20;;;;;;1700522;29;20454;-77
2022/07/17 09:13:34;;;;;;;3.47;3.17;;;24.90;97.20;;;;;;1700009;29;20254;-77
2022/07/17 09:14:36;;;;;;;2.95;2.75;;;25.00;97.20;;;;;;1699849;29;20204;-77
2022/07/17 09:15:28;;;;;;;3.23;2.87;;;25.00;97.20;;;;;;1700343;29;20270;-71
2022/07/17 09:16:19;;;;;;;3.17;2.90;;;25.00;97.20;;;;;;1699882;29;20454;-71
2022/07/17 09:17:12;;;;;;;3.50;3.20;;;25.00;97.20;;;;;;1700224;29;20206;-71
2022/07/17 09:18:03;;;;;;;3.03;2.70;;;25.00;97.20;;;;;;1700497;29;20659;-72
2022/07/17 09:18:55;;;;;;;3.93;3.13;;;25.00;97.20;;;;;;1700124;29;20637;-72
2022/07/17 09:19:46;;;;;;;3.30;3.00;;;25.00;97.20;;;;;;1700046;29;20454;-72
2022/07/17 09:20:45;;;;;;;2.80;2.60;;;25.00;97.20;;;;;;1699901;29;20281;-72
2022/07/17 09:21:37;;;;;;;4.82;3.10;;;25.00;97.20;;;;;;1700712;29;20294;-73
2022/07/17 09:22:28;;;;;;;4.43;3.15;;;25.00;97.20;;;;;;1700641;29;20218;-71
2022/07/17 09:23:20;;;;;;;3.00;2.65;;;25.00;97.20;;;;;;1700633;29;20219;-72
2022/07/17 09:24:12;;;;;;;3.10;2.90;;;25.00;97.20;;;;;;1700621;29;20209;-73
2022/07/17 09:25:04;;;;;;;3.72;3.10;;;25.00;97.20;;;;;;1700600;29;20230;-73
2022/07/17 09:25:57;;;;;;;4.20;3.33;;;25.00;97.20;;;;;;1700101;29;20235;-72
2022/07/17 09:26:47;;;;;;;2.90;2.70;;;25.00;97.20;;;;;;1700083;29;20199;-73
2022/07/17 09:27:39;;;;;;;3.60;3.30;;;25.10;97.20;;;;;;1701453;29;20679;-73
2022/07/17 09:28:30;;;;;;;3.22;2.92;;;25.10;97.20;;;;;;1701809;29;20211;-72
2022/07/17 09:29:22;;;;;;;3.80;3.40;;;25.10;97.20;;;;;;1701976;29;20286;-74